createdAt,value
2022-11-19T00:01:19.581Z,1.50
2022-11-19T00:03:52.167Z,1.30
2022-11-19T00:06:25.184Z,1.20
2022-11-19T00:08:52.177Z,1.20
2022-11-19T00:11:41.433Z,1.40
2022-11-19T00:14:09.808Z,1.20
2022-11-19T00:16:36.867Z,1.63
2022-11-19T00:19:04.604Z,1.40
2022-11-19T00:21:31.342Z,1.37
2022-11-19T00:23:58.478Z,1.30
2022-11-19T00:26:25.550Z,1.67
2022-11-19T00:28:52.813Z,1.80
2022-11-19T00:31:19.624Z,1.63
2022-11-19T00:33:47.103Z,1.83
2022-11-19T00:36:15.456Z,1.37
2022-11-19T00:38:42.614Z,1.63
2022-11-19T00:41:09.626Z,1.33
2022-11-19T00:43:48.989Z,1.97
2022-11-19T00:46:20.650Z,1.50
2022-11-19T00:48:48.938Z,1.20
2022-11-19T00:51:16.720Z,1.70
2022-11-19T00:53:43.567Z,1.60
2022-11-19T00:56:13.354Z,1.77
2022-11-19T00:58:41.143Z,2.00
2022-11-19T01:01:09.349Z,1.92
2022-11-19T01:03:36.988Z,1.40
2022-11-19T01:06:04.075Z,1.95
2022-11-19T01:08:30.964Z,1.85
2022-11-19T01:11:05.627Z,2.00
2022-11-19T01:13:35.394Z,1.80
2022-11-19T01:16:08.161Z,1.90
2022-11-19T01:18:36.564Z,1.80
2022-11-19T01:21:05.034Z,1.98
2022-11-19T01:23:32.017Z,1.93
2022-11-19T01:25:59.009Z,2.47
2022-11-19T01:28:25.897Z,2.05
2022-11-19T01:30:53.099Z,2.55
2022-11-19T01:33:19.961Z,2.70
2022-11-19T01:36:00.133Z,3.07
2022-11-19T01:38:27.569Z,3.15
2022-11-19T01:40:55.619Z,2.90
2022-11-19T01:43:58.555Z,2.33
2022-11-19T01:46:31.106Z,2.88
2022-11-19T01:49:02.973Z,3.60
2022-11-19T01:51:44.711Z,2.42
2022-11-19T01:54:20.775Z,2.70
2022-11-19T01:56:47.732Z,2.67
2022-11-19T01:59:17.802Z,3.50
2022-11-19T02:01:45.705Z,3.63
2022-11-19T02:04:16.431Z,2.22
2022-11-19T02:06:44.576Z,3.25
2022-11-19T02:09:11.357Z,3.45
2022-11-19T02:12:02.640Z,3.08
2022-11-19T02:14:55.410Z,2.40
2022-11-19T02:17:22.166Z,3.05
2022-11-19T02:20:26.518Z,2.90
2022-11-19T02:23:14.455Z,2.70
2022-11-19T02:25:47.114Z,3.08
2022-11-19T02:28:49.835Z,3.15
2022-11-19T02:31:24.125Z,2.80
2022-11-19T02:33:50.823Z,2.40
2022-11-19T02:36:28.325Z,2.65
2022-11-19T02:39:12.749Z,2.45
2022-11-19T02:41:46.886Z,2.33
2022-11-19T02:44:35.109Z,2.25
2022-11-19T02:47:06.382Z,2.55
2022-11-19T02:49:36.042Z,2.78
2022-11-19T02:52:04.342Z,2.00
2022-11-19T02:54:31.211Z,2.70
2022-11-19T02:57:02.730Z,2.95
2022-11-19T03:00:03.513Z,2.60
2022-11-19T03:02:56.219Z,2.70
2022-11-19T03:05:26.500Z,2.60
2022-11-19T03:07:53.565Z,2.58
2022-11-19T03:10:23.920Z,2.60
2022-11-19T03:12:56.347Z,4.18
2022-11-19T03:16:00.652Z,3.33
2022-11-19T03:18:38.369Z,3.65
2022-11-19T03:21:13.420Z,3.20
2022-11-19T03:23:44.973Z,2.83
2022-11-19T03:26:22.035Z,3.55
2022-11-19T03:28:51.016Z,3.50
2022-11-19T03:31:20.527Z,3.70
2022-11-19T03:33:52.368Z,3.63
2022-11-19T03:36:23.977Z,4.20
2022-11-19T03:38:55.684Z,3.45
2022-11-19T03:41:25.663Z,3.35
2022-11-19T03:44:00.735Z,3.55
2022-11-19T03:46:30.464Z,3.47
2022-11-19T03:48:59.245Z,3.55
2022-11-19T03:51:48.292Z,4.88
2022-11-19T03:54:15.319Z,4.88
2022-11-19T03:56:43.001Z,4.20
2022-11-19T03:59:11.437Z,4.38
2022-11-19T04:01:38.692Z,3.85
2022-11-19T04:04:24.882Z,4.32
2022-11-19T04:06:51.683Z,3.80
2022-11-19T04:09:18.823Z,3.38
2022-11-19T04:14:14.184Z,4.30
2022-11-19T04:16:40.923Z,3.40
2022-11-19T04:19:07.664Z,3.95
2022-11-19T04:21:34.363Z,9.40
2022-11-19T04:24:01.088Z,9.00
2022-11-19T04:26:27.809Z,4.60
2022-11-19T04:28:54.505Z,4.75
2022-11-19T04:31:21.218Z,3.97
2022-11-19T04:33:47.971Z,3.60
2022-11-19T04:36:14.849Z,4.40
2022-11-19T04:38:41.712Z,3.90
2022-11-19T04:41:08.449Z,3.75
2022-11-19T04:43:35.191Z,3.58
2022-11-19T04:46:01.938Z,4.57
2022-11-19T04:48:28.740Z,3.83
2022-11-19T04:50:55.440Z,4.13
2022-11-19T04:53:22.310Z,4.85
2022-11-19T04:55:49.035Z,7.78
2022-11-19T04:58:15.777Z,5.20
2022-11-19T05:00:42.750Z,4.25
2022-11-19T05:03:09.483Z,4.70
2022-11-19T05:05:36.212Z,4.40
2022-11-19T05:08:02.995Z,4.65
2022-11-19T05:10:29.702Z,4.20
2022-11-19T05:12:56.410Z,4.20
2022-11-19T05:15:23.286Z,4.90
2022-11-19T05:17:50.103Z,4.55
2022-11-19T05:20:16.913Z,4.50
2022-11-19T05:22:43.759Z,5.00
2022-11-19T05:25:10.502Z,4.55
2022-11-19T05:27:37.248Z,4.03
2022-11-19T05:30:04.759Z,4.68
2022-11-19T05:32:31.531Z,4.82
2022-11-19T05:34:58.294Z,4.03
2022-11-19T05:37:25.030Z,5.10
2022-11-19T05:39:51.777Z,4.20
2022-11-19T05:42:18.512Z,4.47
2022-11-19T05:44:45.389Z,5.05
2022-11-19T05:47:12.227Z,5.40
2022-11-19T05:49:38.950Z,10.45
2022-11-19T05:52:05.701Z,5.40
2022-11-19T05:54:32.739Z,4.80
2022-11-19T05:56:59.506Z,5.13
2022-11-19T05:59:26.231Z,4.32
2022-11-19T06:01:52.987Z,4.57
2022-11-19T06:04:19.692Z,4.32
2022-11-19T06:06:46.519Z,4.47
2022-11-19T06:09:13.379Z,3.72
2022-11-19T06:11:50.574Z,3.80
2022-11-19T06:14:22.128Z,4.37
2022-11-19T06:16:53.159Z,4.07
2022-11-19T06:19:20.528Z,4.20
2022-11-19T06:21:48.032Z,3.50
2022-11-19T06:24:14.847Z,3.35
2022-11-19T06:26:42.402Z,3.40
2022-11-19T06:29:09.886Z,4.18
2022-11-19T06:31:36.610Z,4.00
2022-11-19T06:34:03.618Z,4.03
2022-11-19T06:36:37.371Z,3.58
2022-11-19T06:39:07.353Z,3.58
2022-11-19T06:41:34.109Z,3.20
2022-11-19T06:44:01.014Z,4.10
2022-11-19T06:46:27.804Z,3.97
2022-11-19T06:48:54.546Z,4.18
2022-11-19T06:51:21.264Z,4.05
2022-11-19T06:53:47.997Z,3.90
2022-11-19T06:56:14.747Z,3.70
2022-11-19T06:58:41.481Z,5.95
2022-11-19T07:01:08.232Z,10.52
2022-11-19T07:03:35.723Z,5.68
2022-11-19T07:06:04.815Z,4.20
2022-11-19T07:08:34.651Z,4.65
2022-11-19T07:11:22.456Z,4.57
2022-11-19T07:13:59.762Z,4.30
2022-11-19T07:16:32.670Z,4.50
2022-11-19T07:19:01.117Z,4.50
2022-11-19T07:21:29.121Z,3.80
2022-11-19T07:23:57.219Z,4.43
2022-11-19T07:26:24.247Z,3.83
2022-11-19T07:28:51.307Z,3.67
2022-11-19T07:31:18.096Z,3.53
2022-11-19T07:33:44.943Z,3.67
2022-11-19T07:36:17.957Z,4.40
2022-11-19T07:38:45.938Z,4.27
2022-11-19T07:41:31.907Z,4.40
2022-11-19T07:43:58.732Z,4.10
2022-11-19T07:46:25.455Z,4.00
2022-11-19T07:48:56.668Z,3.73
2022-11-19T07:51:24.955Z,4.53
2022-11-19T07:53:52.176Z,4.27
2022-11-19T07:56:19.903Z,4.00
2022-11-19T07:58:47.261Z,5.10
2022-11-19T08:01:19.462Z,4.60
2022-11-19T08:03:55.784Z,4.20
2022-11-19T08:06:25.165Z,4.27
2022-11-19T08:08:52.062Z,4.67
2022-11-19T08:11:19.513Z,4.07
2022-11-19T08:13:46.238Z,4.33
2022-11-19T08:16:34.272Z,4.77
2022-11-19T08:19:10.315Z,5.83
2022-11-19T08:21:41.123Z,5.80
2022-11-19T08:24:09.179Z,4.77
2022-11-19T08:26:36.718Z,3.97
2022-11-19T08:29:04.160Z,4.27
2022-11-19T08:31:31.202Z,4.40
2022-11-19T08:33:58.022Z,4.00
2022-11-19T08:36:24.868Z,3.67
2022-11-19T08:38:51.647Z,3.93
2022-11-19T08:41:36.819Z,3.63
2022-11-19T08:44:03.730Z,4.03
2022-11-19T08:46:30.480Z,4.03
2022-11-19T08:48:57.286Z,3.70
2022-11-19T08:51:24.016Z,4.10
2022-11-19T08:53:53.902Z,3.40
2022-11-19T08:56:21.152Z,4.80
2022-11-19T08:58:48.548Z,3.60
2022-11-19T09:01:19.009Z,3.93
2022-11-19T09:03:46.503Z,3.53
2022-11-19T09:06:13.602Z,3.10
2022-11-19T09:08:40.920Z,3.67
2022-11-19T09:11:08.762Z,3.00
2022-11-19T09:13:36.117Z,3.40
2022-11-19T09:16:03.074Z,3.67
2022-11-19T09:18:30.657Z,3.40
2022-11-19T09:20:58.217Z,2.97
2022-11-19T09:23:26.800Z,3.57
2022-11-19T09:26:02.191Z,3.77
2022-11-19T09:28:30.276Z,4.00
2022-11-19T09:31:03.331Z,4.37
2022-11-19T09:33:32.249Z,3.47
2022-11-19T09:35:59.034Z,4.00
2022-11-19T09:38:25.935Z,3.97
2022-11-19T09:40:55.856Z,5.93
2022-11-19T09:43:48.824Z,4.43
2022-11-19T09:46:21.736Z,4.57
2022-11-19T09:48:52.503Z,3.40
2022-11-19T09:51:24.307Z,3.93
2022-11-19T09:53:59.541Z,6.37
2022-11-19T09:56:36.789Z,3.83
2022-11-19T09:59:12.076Z,2.50
2022-11-19T10:01:39.353Z,3.23
2022-11-19T10:04:06.123Z,3.27
2022-11-19T10:06:54.497Z,2.80
2022-11-19T10:09:49.343Z,2.87
2022-11-19T10:12:25.444Z,3.00
2022-11-19T10:15:52.508Z,2.33
2022-11-19T10:18:31.431Z,2.73
2022-11-19T10:21:11.790Z,2.40
2022-11-19T10:23:45.083Z,2.60
2022-11-19T10:26:16.449Z,2.50
2022-11-19T10:28:54.377Z,2.77
2022-11-19T10:31:49.538Z,2.37
2022-11-19T10:34:31.219Z,2.33
2022-11-19T10:37:03.209Z,2.40
2022-11-19T10:39:53.595Z,3.10
2022-11-19T10:42:26.755Z,3.40
2022-11-19T10:45:05.147Z,2.80
2022-11-19T10:47:39.920Z,2.50
2022-11-19T10:50:11.298Z,3.57
2022-11-19T10:52:56.820Z,3.13
2022-11-19T10:55:29.395Z,2.90
2022-11-19T10:58:13.731Z,3.10
2022-11-19T11:00:41.755Z,2.40
2022-11-19T11:03:45.447Z,2.57
2022-11-19T11:06:12.475Z,2.60
2022-11-19T11:08:53.613Z,2.47
2022-11-19T11:11:50.288Z,2.43
2022-11-19T11:14:38.990Z,2.23
2022-11-19T11:17:23.859Z,2.57
2022-11-19T11:20:06.150Z,3.23
2022-11-19T11:22:33.585Z,2.57
2022-11-19T11:25:06.767Z,2.83
2022-11-19T11:27:35.747Z,2.97
2022-11-19T11:30:20.352Z,2.77
2022-11-19T11:32:47.751Z,3.10
2022-11-19T11:35:30.367Z,3.20
2022-11-19T11:37:57.295Z,2.83
2022-11-19T11:40:24.509Z,2.97
2022-11-19T11:42:52.975Z,2.70
2022-11-19T11:45:33.739Z,3.10
2022-11-19T11:48:08.978Z,2.00
2022-11-19T11:50:37.202Z,1.90
2022-11-19T11:53:10.097Z,2.73
2022-11-19T11:55:38.702Z,1.90
2022-11-19T11:58:32.890Z,2.63
2022-11-19T12:01:16.003Z,3.60
2022-11-19T12:03:58.484Z,2.40
2022-11-19T12:06:35.613Z,2.60
2022-11-19T12:09:16.623Z,1.93
2022-11-19T12:12:10.744Z,2.50
2022-11-19T12:15:25.171Z,2.03
2022-11-19T12:18:10.878Z,2.40
2022-11-19T12:20:59.247Z,2.70
2022-11-19T12:23:50.333Z,2.50
2022-11-19T12:26:48.062Z,2.47
2022-11-19T12:29:14.934Z,1.73
2022-11-19T12:31:50.511Z,1.60
2022-11-19T12:34:23.124Z,2.13
2022-11-19T12:36:57.004Z,1.70
2022-11-19T12:39:33.043Z,2.23
2022-11-19T12:42:05.605Z,1.50
2022-11-19T12:44:52.604Z,2.10
2022-11-19T12:47:53.420Z,2.10
2022-11-19T12:50:23.012Z,2.00
2022-11-19T12:52:52.803Z,1.93
2022-11-19T12:55:45.177Z,2.50
2022-11-19T12:58:19.902Z,2.13
2022-11-19T13:00:55.125Z,1.87
2022-11-19T13:03:59.501Z,1.90
2022-11-19T13:06:37.698Z,2.23
2022-11-19T13:09:10.017Z,1.20
2022-11-19T13:11:44.820Z,1.93
2022-11-19T13:14:39.377Z,1.87
2022-11-19T13:17:20.365Z,1.60
2022-11-19T13:19:52.543Z,1.77
2022-11-19T13:22:29.143Z,1.23
2022-11-19T13:25:24.018Z,1.60
2022-11-19T13:27:53.586Z,1.50
2022-11-19T13:30:26.980Z,1.50
2022-11-19T13:33:15.651Z,1.70
2022-11-19T13:36:00.168Z,1.23
2022-11-19T13:38:52.362Z,3.40
2022-11-19T13:41:32.601Z,4.10
2022-11-19T13:44:18.391Z,2.97
2022-11-19T13:47:00.400Z,2.20
2022-11-19T13:49:59.291Z,1.93
2022-11-19T13:52:36.726Z,2.80
2022-11-19T13:55:20.216Z,2.13
2022-11-19T13:57:48.327Z,1.90
2022-11-19T14:00:26.486Z,2.80
2022-11-19T14:03:03.792Z,2.00
2022-11-19T14:05:58.517Z,2.23
2022-11-19T14:08:48.191Z,1.73
2022-11-19T14:11:48.347Z,2.00
2022-11-19T14:15:12.141Z,2.40
2022-11-19T14:18:16.715Z,1.77
2022-11-19T14:21:03.273Z,1.60
2022-11-19T14:24:08.031Z,1.87
2022-11-19T14:26:40.473Z,2.50
2022-11-19T14:29:27.432Z,1.67
2022-11-19T14:32:00.338Z,2.33
2022-11-19T14:34:30.290Z,1.70
2022-11-19T14:37:00.228Z,1.53
2022-11-19T14:39:31.226Z,1.70
2022-11-19T14:42:14.678Z,1.90
2022-11-19T14:44:45.238Z,1.83
2022-11-19T14:47:28.645Z,1.60
2022-11-19T14:49:59.979Z,2.27
2022-11-19T14:52:30.877Z,2.70
2022-11-19T14:55:22.208Z,1.80
2022-11-19T14:58:01.791Z,1.43
2022-11-19T15:00:37.637Z,1.80
2022-11-19T15:03:12.159Z,1.77
2022-11-19T15:05:45.889Z,1.70
2022-11-19T15:08:18.703Z,1.70
2022-11-19T15:11:11.363Z,1.90
2022-11-19T15:13:48.989Z,3.50
2022-11-19T15:16:22.658Z,3.20
2022-11-19T15:18:58.736Z,2.20
2022-11-19T15:21:46.461Z,2.37
2022-11-19T15:24:28.143Z,2.13
2022-11-19T15:27:04.761Z,1.90
2022-11-19T15:30:05.486Z,1.53
2022-11-19T15:33:03.607Z,1.70
2022-11-19T15:36:17.997Z,1.97
2022-11-19T15:39:05.668Z,2.03
2022-11-19T15:41:38.244Z,2.10
2022-11-19T15:44:12.016Z,1.73
2022-11-19T15:46:53.202Z,2.10
2022-11-19T15:49:24.400Z,1.60
2022-11-19T15:52:18.976Z,3.23
2022-11-19T15:54:45.784Z,2.20
2022-11-19T15:57:25.276Z,1.60
2022-11-19T15:59:59.737Z,1.90
2022-11-19T16:02:32.455Z,1.63
2022-11-19T16:04:59.475Z,1.90
2022-11-19T16:07:29.107Z,1.60
2022-11-19T16:09:56.280Z,2.07
2022-11-19T16:12:46.491Z,2.47
2022-11-19T16:15:43.367Z,2.00
2022-11-19T16:18:20.004Z,2.27
2022-11-19T16:20:50.130Z,2.60
2022-11-19T16:23:22.543Z,2.50
2022-11-19T16:25:49.793Z,3.23
2022-11-19T16:28:27.691Z,2.53
2022-11-19T16:31:00.252Z,6.00
2022-11-19T16:33:29.583Z,4.73
2022-11-19T16:36:15.972Z,3.70
2022-11-19T16:38:46.441Z,3.23
2022-11-19T16:41:31.988Z,2.10
2022-11-19T16:43:59.434Z,2.77
2022-11-19T16:46:29.475Z,2.83
2022-11-19T16:48:57.982Z,2.30
2022-11-19T16:51:38.833Z,3.30
2022-11-19T16:54:09.148Z,2.53
2022-11-19T16:56:44.809Z,2.93
2022-11-19T16:59:21.346Z,3.13
2022-11-19T17:01:56.573Z,3.10
2022-11-19T17:04:32.301Z,3.60
2022-11-19T17:06:59.573Z,5.10
2022-11-19T17:09:41.496Z,3.73
2022-11-19T17:12:28.703Z,4.90
2022-11-19T17:14:58.393Z,6.20
2022-11-19T17:17:41.215Z,6.27
2022-11-19T17:20:27.503Z,4.43
2022-11-19T17:22:54.448Z,4.63
2022-11-19T17:25:21.237Z,4.60
2022-11-19T17:28:06.043Z,3.93
2022-11-19T17:30:34.381Z,3.73
2022-11-19T17:33:04.352Z,4.23
2022-11-19T17:35:37.398Z,5.30
2022-11-19T17:38:13.564Z,3.30
2022-11-19T17:41:03.132Z,3.33
2022-11-19T17:43:54.616Z,3.47
2022-11-19T17:46:23.361Z,5.70
2022-11-19T17:48:51.365Z,6.30
2022-11-19T17:51:20.731Z,7.07
2022-11-19T17:53:49.330Z,3.20
2022-11-19T17:56:29.960Z,3.63
2022-11-19T17:58:57.105Z,3.20
2022-11-19T18:01:24.039Z,3.77
2022-11-19T18:03:50.962Z,3.58
2022-11-19T18:06:18.636Z,3.43
2022-11-19T18:08:45.927Z,2.80
2022-11-19T18:11:24.264Z,3.10
2022-11-19T18:13:53.256Z,3.67
2022-11-19T18:16:25.422Z,3.10
2022-11-19T18:18:52.280Z,4.03
2022-11-19T18:21:21.126Z,4.00
2022-11-19T18:23:49.929Z,2.70
2022-11-19T18:26:20.165Z,3.60
2022-11-19T18:28:49.070Z,4.17
2022-11-19T18:31:26.128Z,13.03
2022-11-19T18:33:54.407Z,3.20
2022-11-19T18:36:21.974Z,3.80
2022-11-19T18:38:48.899Z,4.23
2022-11-19T18:41:18.959Z,4.60
2022-11-19T18:44:04.463Z,3.83
2022-11-19T18:46:31.359Z,3.20
2022-11-19T18:48:58.229Z,4.00
2022-11-19T18:51:27.298Z,3.30
2022-11-19T18:53:54.099Z,3.03
2022-11-19T18:56:20.862Z,2.60
2022-11-19T18:58:47.596Z,2.57
2022-11-19T19:01:16.338Z,2.78
2022-11-19T19:03:43.212Z,7.43
2022-11-19T19:06:10.056Z,2.80
2022-11-19T19:08:37.074Z,3.83
2022-11-19T19:11:24.995Z,2.85
2022-11-19T19:13:52.237Z,3.27
2022-11-19T19:16:19.008Z,3.20
2022-11-19T19:18:45.783Z,3.77
2022-11-19T19:21:18.013Z,2.80
2022-11-19T19:23:44.814Z,3.90
2022-11-19T19:26:12.737Z,3.50
2022-11-19T19:28:40.041Z,2.60
2022-11-19T19:31:07.340Z,2.60
2022-11-19T19:33:34.577Z,2.37
2022-11-19T19:36:05.256Z,3.83
2022-11-19T19:38:32.499Z,3.27
2022-11-19T19:41:07.185Z,3.23
2022-11-19T19:43:34.028Z,3.17
2022-11-19T19:46:09.743Z,3.20
2022-11-19T19:48:36.865Z,2.80
2022-11-19T19:51:04.134Z,1.97
2022-11-19T19:53:31.391Z,4.53
2022-11-19T19:56:06.004Z,3.13
2022-11-19T19:58:32.966Z,2.87
2022-11-19T20:01:11.128Z,3.13
2022-11-19T20:03:38.299Z,3.00
2022-11-19T20:06:07.669Z,2.10
2022-11-19T20:08:35.628Z,2.43
2022-11-19T20:11:08.208Z,2.60
2022-11-19T20:13:36.778Z,3.47
2022-11-19T20:16:14.588Z,2.80
2022-11-19T20:18:45.294Z,3.00
2022-11-19T20:21:14.748Z,3.72
2022-11-19T20:23:42.355Z,4.20
2022-11-19T20:26:19.136Z,4.80
2022-11-19T20:28:46.690Z,4.72
2022-11-19T20:31:15.496Z,2.90
2022-11-19T20:33:43.202Z,2.90
2022-11-19T20:36:11.715Z,3.40
2022-11-19T20:38:43.087Z,4.87
2022-11-19T20:41:31.954Z,3.23
2022-11-19T20:44:19.229Z,3.45
2022-11-19T20:46:54.431Z,4.27
2022-11-19T20:49:24.157Z,3.70
2022-11-19T20:51:52.669Z,3.20
2022-11-19T20:54:20.481Z,3.57
2022-11-19T20:56:48.764Z,3.50
2022-11-19T20:59:16.767Z,3.23
2022-11-19T21:01:43.802Z,3.30
2022-11-19T21:04:13.795Z,3.22
2022-11-19T21:06:41.137Z,2.93
2022-11-19T21:09:08.222Z,2.95
2022-11-19T21:11:35.483Z,3.05
2022-11-19T21:14:02.661Z,3.27
2022-11-19T21:16:29.492Z,2.92
2022-11-19T21:18:56.555Z,3.25
2022-11-19T21:21:26.866Z,2.70
2022-11-19T21:23:54.559Z,2.63
2022-11-19T21:26:26.734Z,2.27
2022-11-19T21:28:58.744Z,3.05
2022-11-19T21:31:44.257Z,3.00
2022-11-19T21:34:17.901Z,3.00
2022-11-19T21:36:46.030Z,2.65
2022-11-19T21:39:14.747Z,2.97
2022-11-19T21:41:41.798Z,2.97
2022-11-19T21:44:08.891Z,3.00
2022-11-19T21:46:36.043Z,3.50
2022-11-19T21:49:03.086Z,3.20
2022-11-19T21:51:30.038Z,3.55
2022-11-19T21:53:57.807Z,3.10
2022-11-19T21:56:26.187Z,3.57
2022-11-19T21:58:53.100Z,3.28
2022-11-19T22:01:20.008Z,4.07
2022-11-19T22:03:47.105Z,4.00
2022-11-19T22:06:13.949Z,4.18
2022-11-19T22:08:42.068Z,4.15
2022-11-19T22:11:28.635Z,5.38
2022-11-19T22:13:57.215Z,4.20
2022-11-19T22:16:24.182Z,3.80
2022-11-19T22:18:51.067Z,4.30
2022-11-19T22:21:18.213Z,4.78
2022-11-19T22:23:45.055Z,3.72
2022-11-19T22:26:12.943Z,4.28
2022-11-19T22:28:40.171Z,4.60
2022-11-19T22:31:07.327Z,4.33
2022-11-19T22:33:36.229Z,5.03
2022-11-19T22:36:09.734Z,5.33
2022-11-19T22:38:39.144Z,4.72
2022-11-19T22:41:12.459Z,4.93
2022-11-19T22:43:40.127Z,5.00
2022-11-19T22:46:08.955Z,5.85
2022-11-19T22:48:36.166Z,5.30
2022-11-19T22:51:08.209Z,5.43
2022-11-19T22:53:36.299Z,5.45
2022-11-19T22:56:04.835Z,5.00
2022-11-19T22:58:33.215Z,5.23
2022-11-19T23:01:00.077Z,5.78
2022-11-19T23:03:27.020Z,5.63
2022-11-19T23:05:54.948Z,6.43
2022-11-19T23:08:22.704Z,5.95
2022-11-19T23:10:56.449Z,5.80
2022-11-19T23:13:32.631Z,7.22
2022-11-19T23:16:20.716Z,5.63
2022-11-19T23:18:48.777Z,5.97
2022-11-19T23:21:18.527Z,4.97
2022-11-19T23:23:45.365Z,5.00
2022-11-19T23:26:14.333Z,4.60
2022-11-19T23:28:41.537Z,5.13
2022-11-19T23:31:16.062Z,5.28
2022-11-19T23:33:43.342Z,5.35
2022-11-19T23:36:15.856Z,5.07
2022-11-19T23:38:43.298Z,5.13
2022-11-19T23:41:12.683Z,5.45
2022-11-19T23:43:40.074Z,5.10
2022-11-19T23:46:08.320Z,4.95
2022-11-19T23:48:37.751Z,4.97
2022-11-19T23:51:07.265Z,5.63
2022-11-19T23:53:34.161Z,4.10
2022-11-19T23:56:00.899Z,4.88
2022-11-19T23:58:28.074Z,5.07
